createdAt,value
2023-12-20T00:00:07.804Z,36.87
2023-12-20T00:00:45.105Z,36.63
2023-12-20T00:01:17.379Z,34.30
2023-12-20T00:01:49.601Z,35.57
2023-12-20T00:02:21.674Z,37.50
2023-12-20T00:02:53.675Z,37.63
2023-12-20T00:03:25.856Z,36.73
2023-12-20T00:03:58.252Z,38.13
2023-12-20T00:04:30.339Z,38.43
2023-12-20T00:05:05.200Z,38.80
2023-12-20T00:05:39.532Z,36.33
2023-12-20T00:06:11.813Z,37.00
2023-12-20T00:06:44.114Z,38.50
2023-12-20T00:07:17.510Z,38.93
2023-12-20T00:07:49.958Z,40.47
2023-12-20T00:08:22.417Z,40.00
2023-12-20T00:08:54.939Z,40.13
2023-12-20T00:09:27.021Z,40.40
2023-12-20T00:09:59.219Z,42.53
2023-12-20T00:10:31.436Z,43.57
2023-12-20T00:11:03.546Z,43.10
2023-12-20T00:11:35.722Z,42.33
2023-12-20T00:12:08.021Z,41.07
2023-12-20T00:12:42.389Z,40.73
2023-12-20T00:13:14.531Z,42.83
2023-12-20T00:13:51.747Z,43.03
2023-12-20T00:14:24.144Z,43.30
2023-12-20T00:14:56.187Z,45.27
2023-12-20T00:15:28.219Z,43.73
2023-12-20T00:16:00.635Z,44.20
2023-12-20T00:16:33.239Z,44.73
2023-12-20T00:17:05.570Z,43.70
2023-12-20T00:17:37.701Z,43.07
2023-12-20T00:18:10.097Z,42.27
2023-12-20T00:18:42.270Z,44.33
2023-12-20T00:19:14.467Z,43.23
2023-12-20T00:19:46.662Z,44.10
2023-12-20T00:20:18.988Z,45.20
2023-12-20T00:20:51.082Z,44.40
2023-12-20T00:21:23.306Z,43.03
2023-12-20T00:21:58.561Z,43.30
2023-12-20T00:22:30.682Z,43.97
2023-12-20T00:23:03.687Z,44.77
2023-12-20T00:23:35.785Z,43.03
2023-12-20T00:24:07.861Z,41.97
2023-12-20T00:24:39.885Z,39.97
2023-12-20T00:25:12.329Z,39.10
2023-12-20T00:25:46.604Z,40.47
2023-12-20T00:26:18.781Z,40.03
2023-12-20T00:26:51.002Z,39.97
2023-12-20T00:27:22.956Z,42.10
2023-12-20T00:27:55.095Z,41.80
2023-12-20T00:28:27.252Z,41.27
2023-12-20T00:29:01.989Z,41.27
2023-12-20T00:29:37.039Z,42.00
2023-12-20T00:30:10.139Z,41.63
2023-12-20T00:30:42.390Z,40.30
2023-12-20T00:31:14.874Z,41.10
2023-12-20T00:31:47.087Z,43.20
2023-12-20T00:32:22.581Z,42.17
2023-12-20T00:32:55.287Z,43.20
2023-12-20T00:33:27.516Z,42.17
2023-12-20T00:33:59.812Z,42.70
2023-12-20T00:34:32.048Z,42.70
2023-12-20T00:35:04.431Z,41.30
2023-12-20T00:35:36.461Z,40.37
2023-12-20T00:36:08.544Z,41.10
2023-12-20T00:36:40.647Z,43.93
2023-12-20T00:37:12.729Z,44.93
2023-12-20T00:37:45.706Z,45.80
2023-12-20T00:38:18.069Z,43.50
2023-12-20T00:38:51.195Z,43.50
2023-12-20T00:39:23.228Z,43.53
2023-12-20T00:39:55.324Z,43.17
2023-12-20T00:40:27.422Z,42.60
2023-12-20T00:40:59.548Z,41.17
2023-12-20T00:41:31.710Z,42.10
2023-12-20T00:42:03.801Z,42.23
2023-12-20T00:42:36.755Z,42.30
2023-12-20T00:43:08.882Z,43.30
2023-12-20T00:43:41.024Z,42.83
2023-12-20T00:44:13.223Z,41.60
2023-12-20T00:44:45.360Z,40.93
2023-12-20T00:45:17.431Z,42.17
2023-12-20T00:45:49.566Z,43.23
2023-12-20T00:46:21.825Z,44.83
2023-12-20T00:46:53.995Z,44.30
2023-12-20T00:47:26.155Z,41.63
2023-12-20T00:48:00.762Z,42.43
2023-12-20T00:48:36.379Z,42.17
2023-12-20T00:49:08.656Z,41.10
2023-12-20T00:49:40.859Z,43.17
2023-12-20T00:50:15.933Z,42.60
2023-12-20T00:50:48.253Z,43.43
2023-12-20T00:51:22.588Z,43.00
2023-12-20T00:51:54.790Z,41.83
2023-12-20T00:52:27.135Z,42.07
2023-12-20T00:53:00.040Z,43.00
2023-12-20T00:53:32.069Z,42.43
2023-12-20T00:54:04.238Z,39.17
2023-12-20T00:54:39.343Z,41.83
2023-12-20T00:55:11.672Z,42.83
2023-12-20T00:55:45.657Z,39.17
2023-12-20T00:56:17.980Z,42.50
2023-12-20T00:56:50.143Z,42.47
2023-12-20T00:57:22.186Z,42.07
2023-12-20T00:57:54.731Z,43.20
2023-12-20T00:58:29.814Z,41.87
2023-12-20T00:59:01.998Z,42.37
2023-12-20T00:59:34.325Z,42.70
2023-12-20T01:00:07.351Z,40.80
2023-12-20T01:00:41.525Z,40.63
2023-12-20T01:01:15.250Z,41.23
2023-12-20T01:01:47.715Z,41.80
2023-12-20T01:02:20.772Z,43.53
2023-12-20T01:02:53.009Z,43.17
2023-12-20T01:03:25.434Z,43.03
2023-12-20T01:03:59.917Z,42.50
2023-12-20T01:04:34.710Z,44.77
2023-12-20T01:05:10.750Z,42.90
2023-12-20T01:05:42.833Z,41.03
2023-12-20T01:06:18.134Z,39.33
2023-12-20T01:06:56.385Z,40.43
2023-12-20T01:07:28.478Z,41.13
2023-12-20T01:08:03.071Z,41.60
2023-12-20T01:08:36.361Z,41.80
2023-12-20T01:09:10.925Z,41.93
2023-12-20T01:09:42.939Z,42.07
2023-12-20T01:10:15.134Z,42.93
2023-12-20T01:10:50.094Z,42.53
2023-12-20T01:11:25.403Z,40.30
2023-12-20T01:11:57.523Z,39.60
2023-12-20T01:12:29.562Z,41.27
2023-12-20T01:13:01.803Z,41.33
2023-12-20T01:13:36.903Z,40.77
2023-12-20T01:14:11.791Z,41.07
2023-12-20T01:14:44.163Z,40.97
2023-12-20T01:15:19.911Z,41.40
2023-12-20T01:15:54.530Z,42.40
2023-12-20T01:16:29.481Z,42.57
2023-12-20T01:17:07.129Z,42.63
2023-12-20T01:17:42.447Z,41.77
2023-12-20T01:18:17.027Z,41.77
2023-12-20T01:18:51.795Z,43.17
2023-12-20T01:19:25.392Z,42.30
2023-12-20T01:19:57.740Z,42.00
2023-12-20T01:20:32.990Z,42.17
2023-12-20T01:21:05.351Z,41.80
2023-12-20T01:21:42.391Z,42.30
2023-12-20T01:22:19.323Z,41.83
2023-12-20T01:22:51.497Z,40.00
2023-12-20T01:23:23.602Z,40.70
2023-12-20T01:23:55.709Z,42.40
2023-12-20T01:25:00.811Z,43.50
2023-12-20T01:25:33.043Z,42.83
2023-12-20T01:26:06.716Z,41.23
2023-12-20T01:26:38.916Z,40.93
2023-12-20T01:27:14.198Z,41.23
2023-12-20T01:27:49.061Z,43.10
2023-12-20T01:28:21.301Z,42.37
2023-12-20T01:28:53.480Z,43.10
2023-12-20T01:29:25.649Z,42.17
2023-12-20T01:30:31.103Z,42.43
2023-12-20T01:31:06.506Z,44.00
2023-12-20T01:31:38.838Z,42.80
2023-12-20T01:32:11.236Z,40.90
2023-12-20T01:32:45.872Z,43.33
2023-12-20T01:33:43.076Z,42.50
2023-12-20T01:34:15.607Z,40.37
2023-12-20T01:35:21.222Z,41.10
2023-12-20T01:35:56.024Z,41.63
2023-12-20T01:36:30.407Z,42.90
2023-12-20T01:37:02.586Z,40.70
2023-12-20T01:37:40.631Z,41.00
2023-12-20T01:38:12.642Z,42.63
2023-12-20T01:38:44.800Z,42.47
2023-12-20T01:39:25.388Z,44.03
2023-12-20T01:40:00.537Z,41.93
2023-12-20T01:40:32.730Z,42.73
2023-12-20T01:41:08.690Z,43.73
2023-12-20T01:41:44.684Z,42.33
2023-12-20T01:42:17.023Z,44.13
2023-12-20T01:42:49.158Z,43.80
2023-12-20T01:43:25.608Z,43.23
2023-12-20T01:43:59.789Z,43.33
2023-12-20T01:44:32.123Z,43.07
2023-12-20T01:45:04.680Z,40.67
2023-12-20T01:45:37.438Z,41.27
2023-12-20T01:46:12.462Z,41.13
2023-12-20T01:46:44.518Z,42.23
2023-12-20T01:47:16.880Z,42.40
2023-12-20T01:47:49.104Z,41.70
2023-12-20T01:48:21.831Z,40.93
2023-12-20T01:48:56.204Z,42.27
2023-12-20T01:50:01.408Z,42.30
2023-12-20T01:50:38.587Z,43.40
2023-12-20T01:51:12.202Z,42.20
2023-12-20T01:51:47.187Z,42.53
2023-12-20T01:52:22.168Z,42.43
2023-12-20T01:52:59.074Z,41.43
2023-12-20T01:53:31.368Z,43.73
2023-12-20T01:54:04.821Z,45.43
2023-12-20T01:55:16.757Z,46.77
2023-12-20T01:55:51.774Z,47.20
2023-12-20T01:56:24.556Z,46.30
2023-12-20T01:56:57.154Z,47.50
2023-12-20T01:57:29.869Z,48.17
2023-12-20T01:58:03.661Z,48.90
2023-12-20T01:58:40.138Z,49.90
2023-12-20T01:59:12.634Z,49.30
2023-12-20T01:59:46.111Z,48.27
2023-12-20T02:00:20.543Z,49.20
2023-12-20T02:00:58.128Z,48.50
2023-12-20T02:01:33.235Z,49.67
2023-12-20T02:02:05.785Z,48.97
2023-12-20T02:02:41.224Z,49.47
2023-12-20T02:03:18.177Z,50.77
2023-12-20T02:03:51.322Z,51.83
2023-12-20T02:04:23.838Z,50.23
2023-12-20T02:04:56.648Z,48.57
2023-12-20T02:05:29.792Z,47.10
2023-12-20T02:06:02.126Z,48.23
2023-12-20T02:06:37.794Z,47.97
2023-12-20T02:07:10.803Z,50.83
2023-12-20T02:07:43.371Z,49.23
2023-12-20T02:08:17.984Z,48.80
2023-12-20T02:08:51.684Z,51.33
2023-12-20T02:09:24.153Z,49.70
2023-12-20T02:09:56.915Z,50.80
2023-12-20T02:10:30.471Z,50.97
2023-12-20T02:11:04.490Z,50.73
2023-12-20T02:11:37.505Z,51.67
2023-12-20T02:12:09.696Z,48.07
2023-12-20T02:12:47.232Z,47.57
2023-12-20T02:13:20.613Z,48.63
2023-12-20T02:13:53.084Z,49.90
2023-12-20T02:14:27.541Z,49.87
2023-12-20T02:15:02.344Z,48.23
2023-12-20T02:15:34.560Z,47.83
2023-12-20T02:16:08.865Z,48.23
2023-12-20T02:16:44.078Z,48.37
2023-12-20T02:17:17.530Z,49.80
2023-12-20T02:17:50.510Z,48.83
2023-12-20T02:18:23.002Z,49.23
2023-12-20T02:18:55.306Z,49.50
2023-12-20T02:19:31.865Z,49.77
2023-12-20T02:20:07.310Z,49.87
2023-12-20T02:20:39.546Z,50.03
2023-12-20T02:21:12.102Z,48.10
2023-12-20T02:21:44.262Z,49.67
2023-12-20T02:22:16.465Z,50.20
2023-12-20T02:22:48.750Z,49.13
2023-12-20T02:23:22.937Z,49.10
2023-12-20T02:23:55.005Z,50.27
2023-12-20T02:24:27.063Z,50.47
2023-12-20T02:25:04.463Z,48.33
2023-12-20T02:25:36.592Z,51.33
2023-12-20T02:26:09.105Z,49.83
2023-12-20T02:26:44.810Z,50.00
2023-12-20T02:27:21.409Z,51.87
2023-12-20T02:27:55.601Z,53.17
2023-12-20T02:28:31.709Z,53.63
2023-12-20T02:29:03.961Z,51.37
2023-12-20T02:29:37.417Z,50.70
2023-12-20T02:30:10.186Z,50.33
2023-12-20T02:30:42.473Z,49.43
2023-12-20T02:31:14.662Z,52.77
2023-12-20T02:31:46.863Z,52.10
2023-12-20T02:32:27.152Z,52.33
2023-12-20T02:33:02.428Z,48.93
2023-12-20T02:33:34.517Z,51.40
2023-12-20T02:34:06.616Z,49.87
2023-12-20T02:34:38.951Z,51.77
2023-12-20T02:35:13.035Z,49.53
2023-12-20T02:35:48.970Z,49.77
2023-12-20T02:36:21.164Z,49.97
2023-12-20T02:36:56.308Z,49.57
2023-12-20T02:37:31.437Z,49.83
2023-12-20T02:38:03.535Z,49.33
2023-12-20T02:38:35.542Z,49.87
2023-12-20T02:39:07.940Z,50.20
2023-12-20T02:39:40.015Z,50.63
2023-12-20T02:40:12.745Z,50.30
2023-12-20T02:40:49.520Z,50.13
2023-12-20T02:41:22.299Z,48.27
2023-12-20T02:41:54.297Z,46.07
2023-12-20T02:42:26.316Z,46.63
2023-12-20T02:42:59.783Z,45.77
2023-12-20T02:43:34.283Z,45.43
2023-12-20T02:44:06.296Z,45.80
2023-12-20T02:44:38.441Z,47.80
2023-12-20T02:45:10.637Z,47.43
2023-12-20T02:45:42.722Z,47.83
2023-12-20T02:46:18.142Z,47.67
2023-12-20T02:46:50.369Z,48.30
2023-12-20T02:47:22.709Z,49.83
2023-12-20T02:47:54.988Z,46.90
2023-12-20T02:48:27.175Z,45.03
2023-12-20T02:48:59.384Z,46.50
2023-12-20T02:49:37.235Z,47.00
2023-12-20T02:50:09.735Z,45.57
2023-12-20T02:50:42.032Z,44.60
2023-12-20T02:51:14.053Z,44.53
2023-12-20T02:51:46.133Z,42.87
2023-12-20T02:52:18.307Z,42.73
2023-12-20T02:52:50.389Z,43.57
2023-12-20T02:53:22.367Z,44.00
2023-12-20T02:53:54.555Z,46.60
2023-12-20T02:54:26.725Z,46.83
2023-12-20T02:54:58.927Z,48.07
2023-12-20T02:55:33.362Z,47.43
2023-12-20T02:56:05.759Z,46.43
2023-12-20T02:56:37.791Z,46.70
2023-12-20T02:57:09.846Z,44.73
2023-12-20T02:57:43.592Z,48.57
2023-12-20T02:58:15.989Z,49.57
2023-12-20T02:58:48.073Z,51.40
2023-12-20T02:59:20.281Z,51.30
2023-12-20T02:59:52.381Z,51.83
2023-12-20T03:00:24.492Z,52.30
2023-12-20T03:00:56.819Z,50.77
2023-12-20T03:02:20.137Z,50.50
2023-12-20T03:02:52.375Z,50.87
2023-12-20T03:03:24.451Z,51.17
2023-12-20T03:03:56.649Z,50.10
2023-12-20T03:04:28.882Z,48.43
2023-12-20T03:05:01.771Z,51.10
2023-12-20T03:05:34.444Z,50.17
2023-12-20T03:06:06.702Z,51.77
2023-12-20T03:06:39.109Z,52.03
2023-12-20T03:07:11.285Z,51.47
2023-12-20T03:07:43.681Z,48.97
2023-12-20T03:08:15.937Z,48.43
2023-12-20T03:08:48.150Z,48.83
2023-12-20T03:09:21.729Z,48.33
2023-12-20T03:10:06.256Z,46.93
2023-12-20T03:10:45.978Z,48.23
2023-12-20T03:11:18.015Z,48.80
2023-12-20T03:11:53.184Z,47.50
2023-12-20T03:12:25.377Z,48.80
2023-12-20T03:12:57.348Z,48.80
2023-12-20T03:13:29.365Z,48.23
2023-12-20T03:14:01.624Z,47.40
2023-12-20T03:14:33.703Z,46.00
2023-12-20T03:15:06.219Z,46.97
2023-12-20T03:15:38.834Z,48.20
2023-12-20T03:16:14.990Z,47.13
2023-12-20T03:16:53.180Z,47.37
2023-12-20T03:17:26.378Z,48.03
2023-12-20T03:18:00.347Z,48.73
2023-12-20T03:18:34.848Z,49.03
2023-12-20T03:19:06.906Z,48.57
2023-12-20T03:19:39.031Z,48.23
2023-12-20T03:20:12.305Z,46.87
2023-12-20T03:20:44.418Z,47.77
2023-12-20T03:21:16.566Z,47.67
2023-12-20T03:21:48.664Z,47.57
2023-12-20T03:22:20.692Z,48.33
2023-12-20T03:22:52.664Z,47.83
2023-12-20T03:23:24.649Z,46.60
2023-12-20T03:23:56.626Z,48.00
2023-12-20T03:24:29.031Z,48.53
2023-12-20T03:25:01.165Z,48.13
2023-12-20T03:25:33.376Z,48.07
2023-12-20T03:26:08.699Z,45.70
2023-12-20T03:26:40.791Z,45.87
2023-12-20T03:27:12.720Z,46.07
2023-12-20T03:27:44.927Z,47.07
2023-12-20T03:28:17.485Z,46.47
2023-12-20T03:28:50.211Z,47.43
2023-12-20T03:29:22.277Z,47.73
2023-12-20T03:29:54.408Z,46.40
2023-12-20T03:30:26.336Z,48.23
2023-12-20T03:30:58.515Z,48.37
2023-12-20T03:31:30.626Z,49.80
2023-12-20T03:32:02.594Z,48.93
2023-12-20T03:32:34.781Z,49.30
2023-12-20T03:33:06.875Z,50.03
2023-12-20T03:33:38.865Z,51.37
2023-12-20T03:34:11.997Z,51.13
2023-12-20T03:34:44.300Z,50.17
2023-12-20T03:35:16.360Z,51.53
2023-12-20T03:35:48.255Z,51.13
2023-12-20T03:36:20.509Z,50.00
2023-12-20T03:36:52.504Z,49.30
2023-12-20T03:37:25.013Z,50.90
2023-12-20T03:37:58.245Z,53.13
2023-12-20T03:38:30.237Z,54.50
2023-12-20T03:39:02.177Z,53.70
2023-12-20T03:39:34.276Z,52.60
2023-12-20T03:40:06.832Z,52.40
2023-12-20T03:40:38.869Z,52.13
2023-12-20T03:41:10.814Z,51.60
2023-12-20T03:41:42.890Z,50.33
2023-12-20T03:42:14.885Z,53.37
2023-12-20T03:42:47.179Z,53.37
2023-12-20T03:43:19.292Z,52.23
2023-12-20T03:43:51.336Z,53.23
2023-12-20T03:44:23.344Z,52.73
2023-12-20T03:44:55.394Z,54.17
2023-12-20T03:45:27.369Z,53.03
2023-12-20T03:46:00.165Z,53.63
2023-12-20T03:46:32.202Z,53.33
2023-12-20T03:47:04.398Z,55.53
2023-12-20T03:47:36.453Z,53.67
2023-12-20T03:48:08.677Z,51.93
2023-12-20T03:48:40.690Z,53.33
2023-12-20T03:49:12.718Z,54.40
2023-12-20T03:49:44.734Z,55.00
2023-12-20T03:50:17.149Z,55.27
2023-12-20T03:50:49.184Z,54.50
2023-12-20T03:51:21.221Z,53.50
2023-12-20T03:51:54.734Z,51.73
2023-12-20T03:52:26.686Z,51.63
2023-12-20T03:52:58.708Z,51.90
2023-12-20T03:53:30.686Z,51.70
2023-12-20T03:54:02.670Z,52.27
2023-12-20T03:54:36.225Z,55.47
2023-12-20T03:55:08.504Z,53.80
2023-12-20T03:55:40.556Z,53.63
2023-12-20T03:56:12.573Z,55.27
2023-12-20T03:56:44.519Z,54.83
2023-12-20T03:57:16.598Z,55.77
2023-12-20T03:57:48.869Z,57.33
2023-12-20T03:58:21.035Z,57.17
2023-12-20T03:58:53.248Z,57.50
2023-12-20T03:59:25.175Z,56.93
2023-12-20T03:59:57.095Z,58.17
2023-12-20T04:00:29.125Z,56.47
2023-12-20T04:01:01.089Z,57.57
2023-12-20T04:01:33.229Z,59.67
2023-12-20T04:02:05.641Z,59.60
2023-12-20T04:02:41.197Z,57.53
2023-12-20T04:03:14.774Z,58.17
2023-12-20T04:03:46.785Z,56.53
2023-12-20T04:04:18.998Z,58.77
2023-12-20T04:04:51.178Z,60.50
2023-12-20T04:05:23.281Z,59.63
2023-12-20T04:05:55.366Z,57.87
2023-12-20T04:06:27.426Z,61.67
2023-12-20T04:06:59.584Z,61.70
2023-12-20T04:07:31.992Z,62.80
2023-12-20T04:08:05.479Z,63.17
2023-12-20T04:08:37.539Z,62.73
2023-12-20T04:09:10.730Z,61.23
2023-12-20T04:09:42.996Z,61.00
2023-12-20T04:10:15.057Z,60.40
2023-12-20T04:10:47.072Z,57.37
2023-12-20T04:11:19.107Z,57.87
2023-12-20T04:11:51.022Z,57.63
2023-12-20T04:12:23.089Z,58.60
2023-12-20T04:12:56.202Z,61.83
2023-12-20T04:13:28.197Z,63.23
2023-12-20T04:14:00.142Z,62.03
2023-12-20T04:14:32.200Z,58.60
2023-12-20T04:15:10.358Z,63.03
2023-12-20T04:15:42.587Z,63.87
2023-12-20T04:16:14.760Z,59.80
2023-12-20T04:16:47.881Z,58.40
2023-12-20T04:17:23.881Z,59.17
2023-12-20T04:17:55.896Z,58.23
2023-12-20T04:18:29.438Z,56.53
2023-12-20T04:19:02.384Z,57.53
2023-12-20T04:19:34.442Z,55.43
2023-12-20T04:20:07.421Z,57.80
2023-12-20T04:20:39.467Z,57.10
2023-12-20T04:21:11.409Z,56.17
2023-12-20T04:21:43.320Z,58.63
2023-12-20T04:22:15.329Z,58.47
2023-12-20T04:22:47.308Z,57.40
2023-12-20T04:23:19.348Z,57.83
2023-12-20T04:23:51.509Z,61.67
2023-12-20T04:24:23.801Z,60.97
2023-12-20T04:24:55.779Z,61.33
2023-12-20T04:25:27.864Z,60.23
2023-12-20T04:25:59.888Z,57.97
2023-12-20T04:26:31.847Z,59.93
2023-12-20T04:27:04.071Z,62.33
2023-12-20T04:27:36.108Z,58.90
2023-12-20T04:28:08.121Z,56.70
2023-12-20T04:28:40.123Z,55.87
2023-12-20T04:29:12.072Z,56.47
2023-12-20T04:29:44.016Z,56.43
2023-12-20T04:30:16.570Z,56.67
2023-12-20T04:30:48.787Z,56.23
2023-12-20T04:31:20.875Z,57.10
2023-12-20T04:31:53.078Z,56.80
2023-12-20T04:32:25.139Z,55.30
2023-12-20T04:32:58.214Z,55.57
2023-12-20T04:33:30.274Z,54.10
2023-12-20T04:34:02.250Z,55.57
2023-12-20T04:34:34.310Z,54.37
2023-12-20T04:35:06.723Z,53.27
2023-12-20T04:35:38.637Z,52.27
2023-12-20T04:36:10.753Z,52.80
2023-12-20T04:36:42.718Z,53.60
2023-12-20T04:37:14.716Z,52.90
2023-12-20T04:37:47.057Z,52.93
2023-12-20T04:38:19.102Z,51.07
2023-12-20T04:38:51.047Z,52.23
2023-12-20T04:39:23.055Z,55.40
2023-12-20T04:39:54.998Z,56.47
2023-12-20T04:40:27.122Z,54.50
2023-12-20T04:40:59.096Z,55.87
2023-12-20T04:41:31.130Z,54.93
2023-12-20T04:42:03.060Z,53.90
2023-12-20T04:42:35.092Z,53.93
2023-12-20T04:43:07.191Z,53.33
2023-12-20T04:43:39.147Z,58.87
2023-12-20T04:44:11.118Z,58.53
2023-12-20T04:44:44.981Z,55.10
2023-12-20T04:45:17.957Z,54.33
2023-12-20T04:45:49.933Z,52.50
2023-12-20T04:46:22.044Z,52.50
2023-12-20T04:46:54.028Z,53.43
2023-12-20T04:47:26.049Z,52.57
2023-12-20T04:47:58.105Z,54.77
2023-12-20T04:48:30.144Z,52.97
2023-12-20T04:49:02.694Z,53.43
2023-12-20T04:49:34.797Z,55.90
2023-12-20T04:50:07.938Z,57.20
2023-12-20T04:50:39.983Z,57.67
2023-12-20T04:51:11.966Z,57.63
2023-12-20T04:51:43.964Z,57.17
2023-12-20T04:52:16.115Z,59.07
2023-12-20T04:52:48.575Z,59.53
2023-12-20T04:53:20.506Z,57.37
2023-12-20T04:53:52.470Z,59.50
2023-12-20T04:54:24.482Z,61.70
2023-12-20T04:54:56.474Z,60.37
2023-12-20T04:55:28.552Z,58.23
2023-12-20T04:56:00.580Z,56.93
2023-12-20T04:56:32.540Z,57.70
2023-12-20T04:57:04.907Z,69.37
2023-12-20T04:57:36.997Z,70.70
2023-12-20T04:58:09.160Z,66.73
2023-12-20T04:58:41.112Z,66.43
2023-12-20T04:59:13.044Z,74.90
2023-12-20T04:59:45.021Z,84.97
2023-12-20T05:00:17.227Z,84.57
2023-12-20T05:00:49.307Z,92.50
2023-12-20T05:01:22.822Z,92.37
2023-12-20T05:01:54.985Z,104.83
2023-12-20T05:02:27.265Z,109.67
2023-12-20T05:02:59.256Z,106.33
2023-12-20T05:03:31.251Z,105.17
2023-12-20T05:04:03.255Z,108.60
2023-12-20T05:04:35.294Z,108.73
2023-12-20T05:05:07.549Z,108.07
2023-12-20T05:05:40.362Z,111.43
2023-12-20T05:06:12.386Z,109.30
2023-12-20T05:06:44.405Z,112.13
2023-12-20T05:07:16.506Z,116.90
2023-12-20T05:07:48.873Z,112.13
2023-12-20T05:08:21.451Z,114.30
2023-12-20T05:08:53.556Z,120.17
2023-12-20T05:09:25.470Z,119.47
2023-12-20T05:09:57.445Z,121.13
2023-12-20T05:10:29.645Z,119.20
2023-12-20T05:11:02.885Z,112.43
2023-12-20T05:11:34.850Z,104.53
2023-12-20T05:12:07.684Z,104.80
2023-12-20T05:12:39.760Z,101.33
2023-12-20T05:13:12.098Z,97.53
2023-12-20T05:13:49.844Z,94.73
2023-12-20T05:14:22.451Z,97.70
2023-12-20T05:14:54.376Z,95.93
2023-12-20T05:15:26.320Z,96.07
2023-12-20T05:15:58.251Z,98.87
2023-12-20T05:16:30.253Z,97.60
2023-12-20T05:17:02.265Z,99.10
2023-12-20T05:17:34.309Z,103.50
2023-12-20T05:18:06.772Z,102.50
2023-12-20T05:18:38.682Z,102.50
2023-12-20T05:19:10.646Z,105.83
2023-12-20T05:19:42.686Z,107.60
2023-12-20T05:20:14.796Z,105.10
2023-12-20T05:20:47.442Z,104.73
2023-12-20T05:21:19.808Z,96.00
2023-12-20T05:21:51.878Z,96.57
2023-12-20T05:22:23.956Z,99.20
2023-12-20T05:22:55.925Z,101.47
2023-12-20T05:23:27.852Z,100.80
2023-12-20T05:23:59.767Z,99.97
2023-12-20T05:24:31.691Z,99.03
2023-12-20T05:25:03.835Z,95.13
2023-12-20T05:25:35.723Z,101.10
2023-12-20T05:26:07.791Z,104.33
2023-12-20T05:26:39.659Z,104.87
2023-12-20T05:27:12.495Z,95.90
2023-12-20T05:27:44.706Z,92.63
2023-12-20T05:28:16.906Z,100.73
2023-12-20T05:28:48.900Z,105.33
2023-12-20T05:29:21.411Z,105.90
2023-12-20T05:29:53.353Z,105.87
2023-12-20T05:30:25.393Z,107.17
2023-12-20T05:30:57.615Z,107.23
2023-12-20T05:31:29.914Z,104.57
2023-12-20T05:32:01.957Z,106.57
2023-12-20T05:32:34.013Z,107.03
2023-12-20T05:33:06.113Z,111.53
2023-12-20T05:33:38.475Z,111.33
2023-12-20T05:34:10.662Z,107.80
2023-12-20T05:34:42.775Z,104.40
2023-12-20T05:35:15.417Z,107.17
2023-12-20T05:35:47.513Z,108.40
2023-12-20T05:36:19.832Z,105.60
2023-12-20T05:36:51.767Z,100.23
2023-12-20T05:37:23.831Z,96.27
2023-12-20T05:37:55.741Z,95.27
2023-12-20T05:38:27.740Z,96.60
2023-12-20T05:38:59.695Z,96.03
2023-12-20T05:39:32.264Z,99.67
2023-12-20T05:40:05.536Z,102.13
2023-12-20T05:40:37.508Z,98.80
2023-12-20T05:41:09.564Z,96.23
2023-12-20T05:41:41.501Z,91.13
2023-12-20T05:42:13.436Z,89.90
2023-12-20T05:42:45.579Z,98.60
2023-12-20T05:43:17.608Z,102.10
2023-12-20T05:43:49.635Z,105.77
2023-12-20T05:44:21.600Z,109.33
2023-12-20T05:44:55.153Z,110.57
2023-12-20T05:45:28.059Z,107.03
2023-12-20T05:45:59.959Z,97.90
2023-12-20T05:46:32.046Z,92.30
2023-12-20T05:47:04.172Z,94.13
2023-12-20T05:47:36.171Z,95.47
2023-12-20T05:48:08.422Z,93.33
2023-12-20T05:48:40.822Z,100.57
2023-12-20T05:49:12.921Z,98.73
2023-12-20T05:49:46.288Z,104.07
2023-12-20T05:50:18.256Z,108.03
2023-12-20T05:50:50.428Z,105.50
2023-12-20T05:51:22.397Z,104.77
2023-12-20T05:51:55.272Z,107.50
2023-12-20T05:52:27.317Z,107.03
2023-12-20T05:52:59.289Z,103.13
2023-12-20T05:53:31.245Z,104.33
2023-12-20T05:54:03.242Z,101.90
2023-12-20T05:54:35.604Z,100.27
2023-12-20T05:55:07.891Z,101.63
2023-12-20T05:55:39.984Z,95.87
2023-12-20T05:56:12.257Z,94.07
2023-12-20T05:56:44.272Z,91.50
2023-12-20T05:57:16.517Z,91.60
2023-12-20T05:57:48.787Z,91.87
2023-12-20T05:58:20.912Z,90.43
2023-12-20T05:58:52.883Z,90.27
2023-12-20T05:59:25.194Z,89.43
2023-12-20T05:59:57.193Z,89.63
2023-12-20T06:00:29.320Z,89.43
2023-12-20T06:01:01.399Z,89.10
2023-12-20T06:01:33.432Z,89.40
2023-12-20T06:02:06.045Z,86.20
2023-12-20T06:02:38.148Z,87.67
2023-12-20T06:03:10.077Z,88.33
2023-12-20T06:03:43.250Z,89.47
2023-12-20T06:04:15.257Z,89.97
2023-12-20T06:04:47.278Z,89.47
2023-12-20T06:05:19.260Z,89.63
2023-12-20T06:05:52.920Z,87.80
2023-12-20T06:06:26.215Z,86.40
2023-12-20T06:06:58.224Z,87.33
2023-12-20T06:07:30.903Z,90.50
2023-12-20T06:08:04.420Z,89.20
2023-12-20T06:08:37.455Z,88.73
2023-12-20T06:09:09.810Z,91.90
2023-12-20T06:09:41.828Z,90.07
2023-12-20T06:10:15.140Z,90.50
2023-12-20T06:10:47.185Z,91.43
2023-12-20T06:11:19.177Z,91.03
2023-12-20T06:11:52.234Z,88.23
2023-12-20T06:12:28.203Z,90.80
2023-12-20T06:13:02.006Z,92.43
2023-12-20T06:13:34.114Z,92.47
2023-12-20T06:14:06.147Z,94.33
2023-12-20T06:14:38.350Z,94.63
2023-12-20T06:15:10.643Z,92.63
2023-12-20T06:15:42.741Z,92.63
2023-12-20T06:16:14.806Z,89.43
2023-12-20T06:16:47.355Z,91.50
2023-12-20T06:17:19.294Z,93.50
2023-12-20T06:17:51.523Z,92.20
2023-12-20T06:18:24.149Z,92.57
2023-12-20T06:18:56.221Z,94.33
2023-12-20T06:19:29.158Z,93.07
2023-12-20T06:20:01.542Z,93.83
2023-12-20T06:20:34.412Z,91.83
2023-12-20T06:21:06.324Z,93.80
2023-12-20T06:21:38.260Z,93.90
2023-12-20T06:22:10.223Z,92.20
2023-12-20T06:22:42.274Z,93.90
2023-12-20T06:23:14.314Z,93.83
2023-12-20T06:23:46.310Z,92.13
2023-12-20T06:24:18.197Z,95.20
2023-12-20T06:24:50.145Z,98.50
2023-12-20T06:25:22.215Z,98.17
2023-12-20T06:25:54.172Z,99.73
2023-12-20T06:26:26.126Z,97.13
2023-12-20T06:26:58.106Z,94.73
2023-12-20T06:27:30.418Z,95.87
2023-12-20T06:28:02.427Z,96.20
2023-12-20T06:28:34.441Z,95.90
2023-12-20T06:29:06.423Z,98.90
2023-12-20T06:29:38.359Z,97.33
2023-12-20T06:30:10.648Z,96.93
2023-12-20T06:30:42.696Z,99.17
2023-12-20T06:31:14.768Z,98.90
2023-12-20T06:31:47.207Z,97.60
2023-12-20T06:32:19.279Z,93.40
2023-12-20T06:32:51.247Z,93.43
2023-12-20T06:33:23.955Z,97.47
2023-12-20T06:33:59.023Z,99.17
2023-12-20T06:34:31.270Z,98.23
2023-12-20T06:35:03.720Z,97.97
2023-12-20T06:35:37.217Z,98.53
2023-12-20T06:36:11.981Z,96.37
2023-12-20T06:36:43.875Z,95.67
2023-12-20T06:37:16.481Z,96.17
2023-12-20T06:37:48.760Z,98.13
2023-12-20T06:38:20.950Z,99.47
2023-12-20T06:38:52.908Z,100.23
2023-12-20T06:39:24.849Z,101.63
2023-12-20T06:39:58.048Z,103.90
2023-12-20T06:40:30.042Z,101.37
2023-12-20T06:41:01.997Z,105.13
2023-12-20T06:41:33.938Z,102.03
2023-12-20T06:42:05.985Z,100.83
2023-12-20T06:42:46.790Z,100.10
2023-12-20T06:43:37.523Z,101.87
2023-12-20T06:44:15.891Z,103.23
2023-12-20T06:44:47.797Z,103.30
2023-12-20T06:45:19.718Z,104.67
2023-12-20T06:45:52.235Z,102.27
2023-12-20T06:46:24.279Z,104.73
2023-12-20T06:46:56.327Z,102.10
2023-12-20T06:47:28.299Z,104.83
2023-12-20T06:48:00.305Z,107.43
2023-12-20T06:48:32.850Z,104.13
2023-12-20T06:49:04.902Z,105.43
2023-12-20T06:49:36.959Z,105.40
2023-12-20T06:50:27.150Z,104.47
2023-12-20T06:51:03.269Z,107.70
2023-12-20T06:51:35.262Z,107.13
2023-12-20T06:52:07.561Z,105.53
2023-12-20T06:52:39.681Z,106.40
2023-12-20T06:53:11.597Z,106.73
2023-12-20T06:53:43.825Z,108.93
2023-12-20T06:54:15.913Z,105.03
2023-12-20T06:54:47.892Z,102.80
2023-12-20T06:55:19.905Z,99.10
2023-12-20T06:55:51.881Z,99.67
2023-12-20T06:56:23.839Z,100.17
2023-12-20T06:56:55.911Z,100.80
2023-12-20T06:57:27.926Z,101.67
2023-12-20T06:57:59.922Z,103.93
2023-12-20T06:58:32.255Z,101.57
2023-12-20T06:59:04.268Z,99.93
2023-12-20T06:59:40.978Z,98.63
2023-12-20T07:00:13.618Z,98.80
2023-12-20T07:00:45.732Z,99.33
2023-12-20T07:01:18.826Z,98.60
2023-12-20T07:01:51.481Z,99.77
2023-12-20T07:02:23.778Z,97.17
2023-12-20T07:02:56.260Z,97.57
2023-12-20T07:03:28.254Z,99.83
2023-12-20T07:04:00.355Z,98.33
2023-12-20T07:04:32.477Z,100.17
2023-12-20T07:05:05.594Z,100.27